Latest Weather Observations for Kuitpo

IDS60801

Issued at 10:01 am CDT Tuesday 17 October 2017 (issued every 30 minutes, with the page automatically refreshed every 10 minutes)

About weather observations | Map of weather stations | Latest weather observations for SA | Other Formats
Station Details ID: 023887 Name: KUITPO FOREST RESERVE Lat: -35.17 Lon: 138.68 Height: 365.0 m
Data from the previous 72 hours. | See also: Recent months at Kuitpo
Date/Time
CDT
Temp
°C
App
Temp
°C
Dew
Point
°C
Rel
Hum
%
Delta-T
°C
Wind Press
QNH
hPa
Press
MSL
hPa
Rain since
9am
mm
Dir  Spd
km/h
Gust
km/h
Spd
kts
Gust
kts
17/10:00am 26.0 21.9 8.0 32 9.8 NNE 19 35 10 19 1017.4 1017.0 0.0
17/09:30am 25.3 22.7 10.7 40 8.3 NNE 15 26 8 14 1017.3 1016.9 0.0
17/09:00am 23.9 21.2 10.2 42 7.7 NNE 15 26 8 14 1017.4 1017.0 0.0
17/08:30am 22.3 18.9 9.1 43 7.2 NNE 17 22 9 12 1017.3 1016.9 0.0
17/08:00am 20.9 17.8 8.9 46 6.5 NNE 15 22 8 12 1017.1 1016.7 0.0
17/07:30am 20.2 16.6 8.5 47 6.2 NNE 17 28 9 15 1016.9 1016.5 0.0
17/07:00am 19.5 16.1 7.6 46 6.2 NNE 15 22 8 12 1016.6 1016.2 0.0
17/06:30am 18.9 15.5 7.7 48 5.8 NNE 15 20 8 11 1016.4 1016.0 0.0
17/06:00am 19.3 15.5 7.7 47 6.0 NNE 17 24 9 13 1016.2 1015.8 0.0
17/05:30am 19.6 15.8 7.7 46 6.2 NNE 17 26 9 14 1015.9 1015.6 0.0
17/05:00am 19.6 15.8 7.7 46 6.2 NNE 17 28 9 15 1015.7 1015.3 0.0
17/04:30am 20.0 15.9 8.0 46 6.3 NNE 19 30 10 16 1015.6 1015.2 0.0
17/04:00am 19.3 15.2 8.0 48 5.9 NNE 19 28 10 15 1015.7 1015.3 0.0
17/03:30am 19.0 15.3 8.1 49 5.7 NNE 17 30 9 16 1015.8 1015.5 0.0
17/03:00am 18.2 15.0 8.5 53 5.1 NE 15 22 8 12 1015.9 1015.6 0.0
17/02:30am 18.2 14.6 8.5 53 5.1 NE 17 26 9 14 1016.2 1015.8 0.0
17/02:00am 18.7 14.9 8.9 53 5.2 NE 19 26 10 14 1016.5 1016.1 0.0
17/01:30am 18.1 14.4 9.5 57 4.6 NE 19 24 10 13 1016.9 1016.5 0.0
17/01:00am 18.6 14.7 9.4 55 4.9 NE 20 28 11 15 1017.2 1016.8 0.0
17/12:30am 18.7 14.9 9.2 54 5.1 ENE 19 24 10 13 1017.5 1017.1 0.0
17/12:00am 19.9 16.4 8.9 49 5.9 ENE 17 20 9 11 1017.7 1017.3 0.0
 
Date/Time
CDT
Temp
°C
App
Temp
°C
Dew
Point
°C
Rel
Hum
%
Delta-T
°C
Wind Press
QNH
hPa
Press
MSL
hPa
Rain since
9am
mm
Dir  Spd
km/h
Gust
km/h
Spd
kts
Gust
kts
16/11:30pm 20.3 16.8 8.6 47 6.2 ESE 17 22 9 12 1018.0 1017.6 0.0
16/11:00pm 20.7 17.2 8.7 46 6.4 ESE 17 22 9 12 1018.2 1017.9 0.0
16/10:30pm 21.0 17.1 8.6 45 6.6 ESE 19 24 10 13 1018.3 1018.0 0.0
16/10:00pm 21.2 17.4 9.1 46 6.5 ESE 19 24 10 13 1018.3 1018.0 0.0
16/09:30pm 21.4 17.5 9.6 47 6.4 ESE 20 24 11 13 1018.2 1017.9 0.0
16/09:00pm 21.4 18.3 10.3 49 6.1 ESE 17 24 9 13 1018.1 1017.7 0.0
16/08:30pm 22.1 19.2 9.6 45 6.8 ESE 15 22 8 12 1017.8 1017.4 0.0
16/08:00pm 24.6 21.9 7.3 33 9.2 ENE 11 17 6 9 1017.3 1016.9 0.0
16/07:30pm 24.9 22.4 8.0 34 9.1 ENE 11 17 6 9 1017.2 1016.8 0.0
16/07:00pm 25.3 22.8 8.3 34 9.3 ENE 11 15 6 8 1017.1 1016.7 0.0
16/06:30pm 26.0 22.8 8.5 33 9.6 ENE 15 20 8 11 1017.2 1016.8 0.0
16/06:00pm 26.4 23.4 9.3 34 9.5 ENE 15 22 8 12 1017.1 1016.7 0.0
16/05:30pm 26.8 23.7 8.7 32 10.0 ENE 15 26 8 14 1017.0 1016.6 0.0
16/05:00pm 27.2 24.8 10.0 34 9.7 ENE 13 19 7 10 1017.1 1016.7 0.0
16/04:30pm 27.4 24.9 11.0 36 9.4 ENE 15 24 8 13 1017.1 1016.7 0.0
16/04:00pm 27.3 25.3 10.1 34 9.8 ENE 11 17 6 9 1017.3 1016.9 0.0
16/03:30pm 27.7 26.5 11.7 37 9.3 NE 9 19 5 10 1017.6 1017.2 0.0
16/03:00pm 27.0 24.4 10.7 36 9.3 E 15 20 8 11 1018.0 1017.6 0.0
16/02:30pm 27.6 25.4 12.0 38 9.1 NE 15 22 8 12 1018.4 1018.1 0.0
16/02:00pm 26.1 25.6 12.2 42 8.1 ESE 6 7 3 4 1018.6 1018.3 0.0
16/01:30pm 26.3 24.5 9.6 35 9.3 ENE 9 15 5 8 1018.8 1018.5 0.0
16/01:00pm 26.6 25.4 11.5 39 8.7 NNE 9 19 5 10 1018.9 1018.6 0.0
16/12:30pm 25.9 23.5 10.1 37 8.9 E 13 20 7 11 1019.3 1018.9 0.0
16/12:00pm 25.8 23.9 13.0 45 7.6 ENE 15 22 8 12 1019.6 1019.2 0.0
16/11:30am 25.5 23.7 13.4 47 7.2 NE 15 20 8 11 1019.9 1019.5 0.0
16/11:00am 24.3 21.8 12.3 47 7.0 NE 17 26 9 14 1020.3 1019.9 0.0
16/10:30am 23.8 22.5 13.6 52 6.0 NE 13 20 7 11 1020.4 1020.0 0.0
16/10:00am 22.3 20.7 12.8 55 5.5 NE 13 20 7 11 1020.6 1020.3 0.0
16/09:30am 21.5 19.7 12.1 55 5.4 NE 13 19 7 10 1020.6 1020.3 0.0
16/09:00am 19.8 17.7 11.3 58 4.7 ENE 13 20 7 11 1020.7 1020.4 0.0
16/08:30am 18.4 15.6 10.0 58 4.5 ENE 15 20 8 11 1020.6 1020.3 0.0
16/08:00am 17.6 13.8 9.2 58 4.5 ENE 19 28 10 15 1020.6 1020.3 0.0
16/07:30am 16.3 12.2 8.8 61 3.9 NE 20 28 11 15 1020.4 1020.0 0.0
16/07:00am 15.1 10.5 8.1 63 3.6 NE 22 28 12 15 1020.1 1019.7 0.0
16/06:30am 14.2 9.3 8.4 68 3.0 NE 24 32 13 17 1019.8 1019.4 0.0
16/06:00am 14.4 9.5 8.6 68 3.0 NE 24 32 13 17 1019.5 1019.1 0.0
16/05:30am 13.6 9.7 9.5 76 2.1 ENE 20 28 11 15 1019.5 1019.1 0.0
16/05:00am 13.3 9.4 9.5 78 2.0 NE 20 28 11 15 1019.3 1018.9 0.0
16/04:30am 13.1 9.6 10.1 82 1.6 ENE 19 28 10 15 1019.4 1019.0 0.0
16/04:00am 13.2 9.4 9.8 80 1.8 ENE 20 26 11 14 1019.5 1019.1 0.0
16/03:30am 13.3 9.7 9.9 80 1.8 ENE 19 26 10 14 1019.7 1019.3 0.0
16/03:00am 13.6 10.0 10.4 81 1.7 E 20 26 11 14 1019.9 1019.5 0.0
16/02:30am 12.4 9.1 11.5 94 0.5 ESE 20 22 11 12 1020.1 1019.7 0.0
16/02:00am 12.3 9.2 11.7 96 0.3 ESE 19 24 10 13 1020.4 1020.0 0.0
16/01:30am 12.1 9.0 11.5 96 0.3 ESE 19 26 10 14 1020.6 1020.3 0.0
16/01:00am 12.3 9.2 11.5 95 0.4 SE 19 26 10 14 1020.9 1020.6 0.0
16/12:30am 12.6 9.9 11.7 94 0.5 ESE 17 24 9 13 1021.1 1020.8 0.0
16/12:00am 12.6 9.0 11.7 94 0.5 ESE 22 30 12 16 1021.1 1020.8 0.0
 
Date/Time
CDT
Temp
°C
App
Temp
°C
Dew
Point
°C
Rel
Hum
%
Delta-T
°C
Wind Press
QNH
hPa
Press
MSL
hPa
Rain since
9am
mm
Dir  Spd
km/h
Gust
km/h
Spd
kts
Gust
kts
15/11:30pm 12.4 9.1 11.6 95 0.4 SE 20 26 11 14 1021.2 1020.9 0.0
15/11:00pm 12.3 8.6 11.5 95 0.4 SE 22 32 12 17 1021.2 1020.9 0.0
15/10:30pm 12.3 8.9 11.4 94 0.5 ESE 20 28 11 15 1021.2 1020.9 0.0
15/10:00pm 11.9 8.4 11.0 94 0.5 ESE 20 32 11 17 1021.0 1020.7 0.0
15/09:30pm 11.6 8.0 10.5 93 0.6 ESE 20 30 11 16 1020.8 1020.5 0.0
15/09:00pm 11.5 7.3 9.9 90 0.8 SE 22 32 12 17 1020.7 1020.4 0.0
15/08:30pm 11.4 7.0 9.1 86 1.2 SE 22 30 12 16 1020.4 1020.0 0.0
15/08:00pm 11.7 7.2 8.7 82 1.5 SE 22 35 12 19 1020.3 1019.9 0.0
15/07:30pm 12.3 7.4 8.6 78 1.9 SE 24 37 13 20 1020.0 1019.6 0.0
15/07:00pm 13.2 8.4 8.7 74 2.3 SE 24 39 13 21 1020.1 1019.7 0.0
15/06:30pm 14.1 9.7 9.1 72 2.6 SE 22 32 12 17 1019.9 1019.5 0.0
15/06:00pm 14.9 10.5 8.8 67 3.2 SE 22 33 12 18 1020.0 1019.6 0.0
15/05:30pm 15.7 11.0 9.1 65 3.4 SE 24 35 13 19 1019.9 1019.5 0.0
15/05:00pm 16.5 12.0 9.9 65 3.5 SE 24 35 13 19 1020.0 1019.6 0.0
15/04:30pm 17.2 13.3 10.8 66 3.5 SE 22 33 12 18 1020.0 1019.6 0.0
15/04:00pm 17.8 13.8 10.4 62 4.0 SE 22 32 12 17 1020.2 1019.8 0.0
15/03:30pm 19.3 15.8 10.3 56 4.9 ESE 19 30 10 16 1020.3 1019.9 0.0
15/03:00pm 19.7 17.1 10.7 56 5.0 ESE 15 22 8 12 1020.6 1020.3 0.0
15/02:30pm 19.5 16.4 10.2 55 5.1 ESE 17 26 9 14 1021.0 1020.7 0.0
15/02:00pm 20.0 17.2 11.2 57 4.9 E 17 26 9 14 1021.3 1021.0 0.0
15/01:30pm 18.7 15.1 9.8 56 4.8 E 19 26 10 14 1021.3 1021.0 0.0
15/01:00pm 18.6 15.3 9.7 56 4.8 E 17 26 9 14 1021.4 1021.1 0.0
15/12:30pm 18.0 14.7 10.9 63 3.9 E 19 26 10 14 1021.6 1021.3 0.0
15/12:00pm 17.7 14.9 11.3 66 3.5 ENE 17 28 9 15 1021.8 1021.5 0.0
15/11:30am 17.0 13.4 10.4 65 3.6 E 20 32 11 17 1022.2 1021.8 0.0
15/11:00am 16.2 12.4 9.8 66 3.4 ENE 20 32 11 17 1022.5 1022.1 0.0
15/10:30am 15.2 10.8 9.1 67 3.2 E 22 32 12 17 1022.7 1022.3 0.0
15/10:00am 14.6 10.3 9.2 70 2.8 E 22 28 12 15 1022.8 1022.4 0.0
15/09:30am 14.1 10.2 9.3 73 2.5 ENE 20 32 11 17 1023.0 1022.7 0.0
15/09:00am 13.1 9.5 9.7 80 1.8 E 19 28 10 15 1022.8 1022.4 0.2
15/08:30am 12.4 8.6 9.2 81 1.6 E 19 26 10 14 1022.6 1022.2 0.2
15/08:00am 11.4 7.7 9.3 87 1.1 E 19 26 10 14 1022.5 1022.1 0.2
15/07:30am 10.4 6.2 9.6 95 0.4 E 22 30 12 16 1022.1 1021.7 0.2
15/07:00am 9.6 5.7 9.3 98 0.2 E 20 26 11 14 1021.7 1021.4 0.2
15/06:30am 9.3 5.5 9.0 98 0.1 E 19 24 10 13 1021.6 1021.3 0.2
15/06:00am 9.4 6.0 9.1 98 0.2 E 17 20 9 11 1021.4 1021.1 0.2
15/05:30am 9.6 4.1 9.3 98 0.2 E 28 35 15 19 1021.0 1020.7 0.2
15/05:00am 9.8 4.8 9.5 98 0.2 ESE 26 33 14 18 1021.3 1021.0 0.2
15/04:30am 10.1 4.8 9.8 98 0.2 ESE 28 37 15 20 1021.2 1020.9 0.2
15/04:00am 10.4 6.3 10.1 98 0.2 E 22 32 12 17 1021.7 1021.4 0.2
15/03:30am 10.6 6.9 10.3 98 0.2 E 20 33 11 18 1022.0 1021.6 0.2
15/03:00am 10.7 7.1 10.4 98 0.2 E 20 30 11 16 1022.2 1021.8 0.2
15/02:30am 10.6 6.9 10.3 98 0.2 E 20 32 11 17 1022.3 1021.9 0.2
15/02:00am 10.7 5.9 10.4 98 0.2 E 26 35 14 19 1022.2 1021.8 0.2
15/01:30am 10.7 5.9 10.4 98 0.2 ESE 26 37 14 20 1022.5 1022.1 0.2
15/01:00am 10.9 6.9 10.4 97 0.3 ESE 22 32 12 17 1022.7 1022.3 0.2
15/12:30am 10.8 6.8 10.3 97 0.3 ESE 22 33 12 18 1022.7 1022.3 0.2
15/12:00am 10.6 6.1 10.0 96 0.3 ESE 24 35 13 19 1022.7 1022.3 0.2
 
Date/Time
CDT
Temp
°C
App
Temp
°C
Dew
Point
°C
Rel
Hum
%
Delta-T
°C
Wind Press
QNH
hPa
Press
MSL
hPa
Rain since
9am
mm
Dir  Spd
km/h
Gust
km/h
Spd
kts
Gust
kts
14/11:30pm 10.4 6.8 9.8 96 0.3 ESE 19 26 10 14 1022.9 1022.5 0.2
14/11:00pm 10.4 6.7 9.6 95 0.4 ESE 19 28 10 15 1022.9 1022.5 0.2
14/10:30pm 10.4 6.5 9.5 94 0.5 ESE 20 30 11 16 1023.0 1022.7 0.2
14/10:00pm 10.6 6.3 9.5 93 0.6 ESE 22 35 12 19 1023.2 1022.9 0.2
14/09:30pm 10.6 6.9 9.5 93 0.6 ESE 19 28 10 15 1023.2 1022.9 0.2
14/09:00pm 10.6 6.9 9.5 93 0.6 SE 19 30 10 16 1023.2 1022.9 0.2
14/08:30pm 10.6 8.0 9.4 92 0.6 SE 13 26 7 14 1022.9 1022.5 0.2
14/08:00pm 10.9 8.0 9.5 91 0.7 SE 15 28 8 15 1022.8 1022.4 0.2
14/07:30pm 11.2 7.9 9.6 90 0.8 SE 17 26 9 14 1022.7 1022.3 0.2
14/07:00pm 12.0 8.3 9.6 85 1.2 SE 19 30 10 16 1022.5 1022.1 0.2
14/06:30pm 13.2 9.5 9.6 79 1.9 SE 19 33 10 18 1022.2 1021.8 0.2
14/06:00pm 14.4 11.5 9.8 74 2.4 SE 15 22 8 12 1022.3 1021.9 0.2
14/05:30pm 15.5 12.6 9.8 69 3.0 SE 15 22 8 12 1022.0 1021.6 0.2
14/05:00pm 16.3 13.1 9.9 66 3.4 ESE 17 26 9 14 1022.0 1021.6 0.2
14/04:30pm 17.0 14.0 10.8 67 3.4 SE 17 24 9 13 1022.0 1021.6 0.2
14/04:00pm 17.4 14.5 8.3 55 4.7 ESE 13 20 7 11 1022.1 1021.7 0.2
14/03:30pm 17.3 14.5 8.7 57 4.5 ESE 13 20 7 11 1022.2 1021.8 0.2
14/03:00pm 17.6 15.6 10.2 62 4.0 ESE 11 19 6 10 1022.6 1022.2 0.2
14/02:30pm 17.0 14.5 9.7 62 3.9 ESE 13 24 7 13 1022.9 1022.5 0.0
14/02:00pm 16.6 14.0 9.5 63 3.8 E 13 22 7 12 1023.0 1022.7 0.0
14/01:30pm 16.1 13.5 9.3 64 3.6 E 13 19 7 10 1023.4 1023.1 0.0
14/01:00pm 16.3 13.6 10.2 67 3.3 E 15 20 8 11 1023.7 1023.4 0.0
14/12:30pm 15.3 12.5 9.9 70 2.9 ENE 15 22 8 12 1023.9 1023.6 0.0
14/12:00pm 14.7 11.5 10.1 74 2.4 E 17 24 9 13 1024.1 1023.8 0.0
14/11:30am 13.6 9.9 9.3 75 2.2 E 19 26 10 14 1024.3 1024.0 0.0
14/11:00am 12.5 9.1 9.1 80 1.7 E 17 32 9 17 1024.4 1024.1 0.0
14/10:30am 12.2 8.2 9.0 81 1.6 E 20 28 11 15 1024.5 1024.2 0.0

Other Formats:

Comma delimited format used in spreadsheet applications
http://www.bom.gov.au/fwo/IDS60801/IDS60801.94683.axf

JavaScript Object Notation format (JSON) in row-major order
http://www.bom.gov.au/fwo/IDS60801/IDS60801.94683.json